createdAt,value
2017-09-28T00:00:09.961Z,75.86
2017-09-28T00:00:38.055Z,75.86
2017-09-28T00:01:06.068Z,75.51
2017-09-28T00:01:34.172Z,75.23
2017-09-28T00:02:02.269Z,75.19
2017-09-28T00:02:30.272Z,75.57
2017-09-28T00:02:58.360Z,75.48
2017-09-28T00:03:26.453Z,75.67
2017-09-28T00:03:54.558Z,75.86
2017-09-28T00:04:22.621Z,75.96
2017-09-28T00:04:50.702Z,75.96
2017-09-28T00:05:18.804Z,75.96
2017-09-28T00:05:46.717Z,75.96
2017-09-28T00:06:14.720Z,75.96
2017-09-28T00:06:42.840Z,75.96
2017-09-28T00:07:10.902Z,75.57
2017-09-28T00:07:38.883Z,75.76
2017-09-28T00:08:06.984Z,76.06
2017-09-28T00:08:34.874Z,76.06
2017-09-28T00:09:02.876Z,75.86
2017-09-28T00:09:31.085Z,76.21
2017-09-28T00:09:59.185Z,76.15
2017-09-28T00:10:27.264Z,76.11
2017-09-28T00:10:55.361Z,76.34
2017-09-28T00:11:23.453Z,76.21
2017-09-28T00:11:51.464Z,76.59
2017-09-28T00:12:19.561Z,76.11
2017-09-28T00:12:47.593Z,76.31
2017-09-28T00:13:15.480Z,76.69
2017-09-28T00:13:43.465Z,76.59
2017-09-28T00:14:11.574Z,76.5
2017-09-28T00:14:39.775Z,76.69
2017-09-28T00:15:07.879Z,76.59
2017-09-28T00:15:35.797Z,76.59
2017-09-28T00:16:03.804Z,76.69
2017-09-28T00:16:31.803Z,76.5
2017-09-28T00:16:59.806Z,76.5
2017-09-28T00:17:27.594Z,76.98
2017-09-28T00:17:55.585Z,76.88
2017-09-28T00:18:23.483Z,77.26
2017-09-28T00:18:51.599Z,77.26
2017-09-28T00:19:19.840Z,77.17
2017-09-28T00:19:47.754Z,77.08
2017-09-28T00:20:15.759Z,77.26
2017-09-28T00:20:43.667Z,76.98
2017-09-28T00:21:11.760Z,77.17
2017-09-28T00:21:39.722Z,76.98
2017-09-28T00:22:07.615Z,76.98
2017-09-28T00:22:35.597Z,77.08
2017-09-28T00:23:03.479Z,77.08
2017-09-28T00:23:31.457Z,77.36
2017-09-28T00:23:59.429Z,77.26
2017-09-28T00:24:27.673Z,77.26
2017-09-28T00:24:55.769Z,77.46
2017-09-28T00:25:23.771Z,77.46
2017-09-28T00:25:51.588Z,77.17
2017-09-28T00:26:19.670Z,77.17
2017-09-28T00:26:47.641Z,77.84
2017-09-28T00:27:15.621Z,77.75
2017-09-28T00:27:43.608Z,77.84
2017-09-28T00:28:11.496Z,77.56
2017-09-28T00:28:39.488Z,77.46
2017-09-28T00:29:07.566Z,77.84
2017-09-28T00:29:35.683Z,77.84
2017-09-28T00:30:03.748Z,77.84
2017-09-28T00:30:31.730Z,77.26
2017-09-28T00:30:59.825Z,77.46
2017-09-28T00:31:27.899Z,77.46
2017-09-28T00:31:55.874Z,78.03
2017-09-28T00:32:23.977Z,77.75
2017-09-28T00:32:52.011Z,77.94
2017-09-28T00:33:20.083Z,77.46
2017-09-28T00:33:48.088Z,77.75
2017-09-28T00:34:16.103Z,77.65
2017-09-28T00:34:44.162Z,77.65
2017-09-28T00:35:12.137Z,77.65
2017-09-28T00:35:40.039Z,77.56
2017-09-28T00:36:08.113Z,78.03
2017-09-28T00:36:36.073Z,77.65
2017-09-28T00:37:04.180Z,77.94
2017-09-28T00:37:32.274Z,77.94
2017-09-28T00:38:00.277Z,78.03
2017-09-28T00:38:28.186Z,78.38
2017-09-28T00:38:56.162Z,77.75
2017-09-28T00:39:24.191Z,77.94
2017-09-28T00:39:52.426Z,77.65
2017-09-28T00:40:20.556Z,78
2017-09-28T00:40:48.454Z,77.9
2017-09-28T00:41:16.467Z,78.52
2017-09-28T00:41:44.441Z,78.19
2017-09-28T00:42:12.408Z,78
2017-09-28T00:42:40.532Z,78.42
2017-09-28T00:43:08.523Z,78.38
2017-09-28T00:43:36.626Z,78.42
2017-09-28T00:44:04.618Z,78.42
2017-09-28T00:44:32.859Z,78.38
2017-09-28T00:45:00.823Z,78.38
2017-09-28T00:45:28.928Z,78.38
2017-09-28T00:45:57.021Z,78.38
2017-09-28T00:46:25.123Z,78.38
2017-09-28T00:46:53.228Z,78.38
2017-09-28T00:47:21.354Z,78.33
2017-09-28T00:47:49.439Z,78.48
2017-09-28T00:48:17.351Z,78.19
2017-09-28T00:48:45.469Z,78.28
2017-09-28T00:49:13.570Z,77.94
2017-09-28T00:49:41.637Z,78.19
2017-09-28T00:50:09.624Z,77.9
2017-09-28T00:50:37.629Z,78.28
2017-09-28T00:51:05.718Z,78.48
2017-09-28T00:51:33.632Z,78.48
2017-09-28T00:52:01.730Z,77.9
2017-09-28T00:52:29.815Z,78.09
2017-09-28T00:52:57.692Z,78.09
2017-09-28T00:53:25.683Z,78.38
2017-09-28T00:53:53.786Z,78.09
2017-09-28T00:54:21.782Z,78.09
2017-09-28T00:54:49.986Z,78.38
2017-09-28T00:55:18.084Z,78.86
2017-09-28T00:55:46.064Z,78.38
2017-09-28T00:56:14.148Z,78.67
2017-09-28T00:56:42.024Z,78.67
2017-09-28T00:57:10.041Z,78.77
2017-09-28T00:57:38.132Z,78.58
2017-09-28T00:58:06.144Z,79.05
2017-09-28T00:58:34.248Z,78.96
2017-09-28T00:59:02.150Z,78.96
2017-09-28T00:59:30.159Z,79.25
2017-09-28T00:59:58.368Z,79.25
2017-09-28T01:00:26.459Z,79.35
2017-09-28T01:00:54.436Z,79.53
2017-09-28T01:01:22.535Z,79.25
2017-09-28T01:01:50.554Z,79.92
2017-09-28T01:02:18.545Z,79.82
2017-09-28T01:02:46.639Z,80.11
2017-09-28T01:03:14.727Z,80.3
2017-09-28T01:03:42.706Z,80.3
2017-09-28T01:04:10.703Z,80.4
2017-09-28T01:04:38.803Z,81.07
2017-09-28T01:05:07.021Z,80.6
2017-09-28T01:05:35.114Z,80.69
2017-09-28T01:06:03.103Z,81.07
2017-09-28T01:06:30.935Z,81.27
2017-09-28T01:06:59.027Z,81.27
2017-09-28T01:07:27.019Z,81.75
2017-09-28T01:07:55.008Z,81.84
2017-09-28T01:08:23.099Z,82.23
2017-09-28T01:08:51.193Z,82.14
2017-09-28T01:09:19.291Z,82.52
2017-09-28T01:09:47.542Z,82.61
2017-09-28T01:10:15.528Z,83.04
2017-09-28T01:10:43.635Z,83.19
2017-09-28T01:11:11.744Z,83.19
2017-09-28T01:11:39.855Z,83.23
2017-09-28T01:12:07.940Z,83.67
2017-09-28T01:12:36.029Z,83.39
2017-09-28T01:13:04.005Z,84.25
2017-09-28T01:13:31.982Z,83.77
2017-09-28T01:13:59.869Z,84.44
2017-09-28T01:14:27.868Z,84.06
2017-09-28T01:14:56.069Z,84.34
2017-09-28T01:15:24.098Z,84.77
2017-09-28T01:15:51.994Z,84.58
2017-09-28T01:16:19.964Z,84.34
2017-09-28T01:16:47.963Z,84.29
2017-09-28T01:17:15.980Z,84.63
2017-09-28T01:17:44.076Z,84.77
2017-09-28T01:18:12.174Z,84.54
2017-09-28T01:18:40.279Z,85.25
2017-09-28T01:19:08.256Z,85.21
2017-09-28T01:19:36.377Z,85.06
2017-09-28T01:20:04.570Z,85.25
2017-09-28T01:20:32.675Z,85.25
2017-09-28T01:21:00.675Z,84.77
2017-09-28T01:21:28.745Z,84.77
2017-09-28T01:21:56.864Z,85.06
2017-09-28T01:22:24.958Z,84.1
2017-09-28T01:22:53.092Z,84.87
2017-09-28T01:23:21.203Z,84.67
2017-09-28T01:23:49.312Z,84.67
2017-09-28T01:24:17.374Z,84.58
2017-09-28T01:24:45.508Z,84.19
2017-09-28T01:25:13.679Z,84.1
2017-09-28T01:25:41.805Z,84.39
2017-09-28T01:26:09.807Z,84
2017-09-28T01:26:37.911Z,84.1
2017-09-28T01:27:05.941Z,84.39
2017-09-28T01:27:34.014Z,84.25
2017-09-28T01:28:02.122Z,84.25
2017-09-28T01:28:30.141Z,84.34
2017-09-28T01:28:58.239Z,85.11
2017-09-28T01:29:26.119Z,85.02
2017-09-28T01:29:54.239Z,85.64
2017-09-28T01:30:22.449Z,85.98
2017-09-28T01:30:50.475Z,86.65
2017-09-28T01:31:18.585Z,86.85
2017-09-28T01:31:46.579Z,87.04
2017-09-28T01:32:14.573Z,87.56
2017-09-28T01:32:42.474Z,86.94
2017-09-28T01:33:10.606Z,87.71
2017-09-28T01:33:38.666Z,88
2017-09-28T01:34:06.752Z,87.62
2017-09-28T01:34:34.652Z,87.9
2017-09-28T01:35:02.654Z,88.19
2017-09-28T01:35:30.733Z,88.19
2017-09-28T01:35:58.753Z,88.39
2017-09-28T01:36:26.870Z,88.48
2017-09-28T01:36:54.855Z,88.87
2017-09-28T01:37:22.872Z,89.06
2017-09-28T01:37:50.682Z,88.96
2017-09-28T01:38:18.773Z,89.54
2017-09-28T01:38:46.781Z,89.35
2017-09-28T01:39:14.767Z,89.44
2017-09-28T01:39:42.844Z,89.92
2017-09-28T01:40:10.849Z,89.44
2017-09-28T01:40:38.852Z,89.64
2017-09-28T01:41:06.860Z,89.83
2017-09-28T01:41:34.951Z,90.21
2017-09-28T01:42:02.957Z,89.92
2017-09-28T01:42:30.957Z,90.02
2017-09-28T01:42:59.089Z,90.02
2017-09-28T01:43:27.148Z,89.92
2017-09-28T01:43:55.136Z,89.92
2017-09-28T01:44:23.239Z,90.59
2017-09-28T01:44:51.236Z,90.5
2017-09-28T01:45:20.434Z,90.59
2017-09-28T01:45:48.786Z,90.89
2017-09-28T01:46:16.668Z,90.79
2017-09-28T01:46:44.749Z,90.79
2017-09-28T01:47:12.859Z,90.89
2017-09-28T01:47:40.924Z,90.69
2017-09-28T01:48:08.938Z,90.79
2017-09-28T01:48:36.925Z,90.98
2017-09-28T01:49:05.026Z,90.79
2017-09-28T01:49:33.139Z,91.27
2017-09-28T01:50:01.134Z,91.08
2017-09-28T01:50:29.246Z,90.69
2017-09-28T01:50:57.228Z,91.08
2017-09-28T01:51:25.217Z,91.08
2017-09-28T01:51:53.207Z,90.89
2017-09-28T01:52:21.302Z,90.79
2017-09-28T01:52:49.298Z,91.08
2017-09-28T01:53:17.394Z,90.79
2017-09-28T01:53:45.271Z,91.08
2017-09-28T01:54:13.194Z,90.79
2017-09-28T01:54:41.300Z,90.89
2017-09-28T01:55:09.313Z,90.89
2017-09-28T01:55:37.495Z,90.59
2017-09-28T01:56:05.473Z,90.89
2017-09-28T01:56:33.547Z,90.79
2017-09-28T01:57:01.568Z,90.94
2017-09-28T01:57:29.683Z,90.94
2017-09-28T01:57:57.770Z,90.59
2017-09-28T01:58:26.146Z,90.45
2017-09-28T01:58:54.216Z,90.45
2017-09-28T01:59:22.332Z,90.45
2017-09-28T01:59:50.424Z,90.26
2017-09-28T02:00:18.570Z,90.45
2017-09-28T02:00:46.584Z,90.45
2017-09-28T02:01:14.558Z,90.45
2017-09-28T02:01:42.654Z,90.45
2017-09-28T02:02:10.682Z,90.45
2017-09-28T02:02:38.770Z,90.17
2017-09-28T02:03:06.736Z,90.17
2017-09-28T02:03:34.732Z,90.17
2017-09-28T02:04:02.744Z,90.45
2017-09-28T02:04:30.825Z,90.45
2017-09-28T02:04:58.916Z,90.45
2017-09-28T02:05:27.132Z,90.55
2017-09-28T02:05:55.224Z,90.45
2017-09-28T02:06:23.298Z,90.36
2017-09-28T02:06:51.385Z,90.65
2017-09-28T02:07:19.475Z,90.65
2017-09-28T02:07:47.442Z,90.45
2017-09-28T02:08:15.470Z,90.45
2017-09-28T02:08:43.585Z,90.45
2017-09-28T02:09:11.679Z,90.26
2017-09-28T02:09:39.761Z,90.55
2017-09-28T02:10:07.911Z,90.84
2017-09-28T02:10:36.106Z,90.84
2017-09-28T02:11:04.208Z,90.94
2017-09-28T02:11:32.310Z,90.94
2017-09-28T02:12:00.324Z,90.84
2017-09-28T02:12:28.436Z,90.94
2017-09-28T02:12:56.422Z,90.45
2017-09-28T02:13:24.423Z,90.55
2017-09-28T02:13:52.448Z,90.45
2017-09-28T02:14:20.437Z,90.36
2017-09-28T02:14:48.343Z,90.26
2017-09-28T02:15:16.319Z,90.55
2017-09-28T02:15:44.449Z,90.26
2017-09-28T02:16:12.452Z,89.98
2017-09-28T02:16:40.442Z,89.88
2017-09-28T02:17:08.539Z,89.98
2017-09-28T02:17:36.418Z,89.98
2017-09-28T02:18:04.498Z,89.88
2017-09-28T02:18:32.563Z,90.07
2017-09-28T02:19:00.552Z,90.07
2017-09-28T02:19:28.589Z,90.07
2017-09-28T02:19:56.692Z,90.07
2017-09-28T02:20:24.769Z,89.88
2017-09-28T02:20:52.836Z,90.07
2017-09-28T02:21:20.849Z,90.07
2017-09-28T02:21:48.644Z,89.4
2017-09-28T02:22:16.736Z,89.59
2017-09-28T02:22:44.821Z,90.26
2017-09-28T02:23:12.910Z,89.98
2017-09-28T02:23:41.017Z,89.88
2017-09-28T02:24:08.803Z,90.17
2017-09-28T02:24:36.808Z,90.36
2017-09-28T02:25:04.904Z,90.26
2017-09-28T02:25:33.084Z,90.45
2017-09-28T02:26:01.105Z,90.55
2017-09-28T02:26:28.914Z,90.65
2017-09-28T02:26:56.781Z,90.65
2017-09-28T02:27:24.883Z,90.17
2017-09-28T02:27:52.757Z,90.55
2017-09-28T02:28:20.747Z,90.55
2017-09-28T02:28:48.751Z,91.03
2017-09-28T02:29:16.748Z,90.84
2017-09-28T02:29:44.859Z,90.65
2017-09-28T02:30:12.873Z,90.75
2017-09-28T02:30:41.067Z,90.75
2017-09-28T02:31:08.991Z,91.13
2017-09-28T02:31:36.902Z,91.13
2017-09-28T02:32:04.918Z,91.42
2017-09-28T02:32:33.025Z,91.42
2017-09-28T02:33:01.097Z,91.52
2017-09-28T02:33:29.091Z,91.42
2017-09-28T02:33:57.093Z,92.09
2017-09-28T02:34:25.090Z,91.71
2017-09-28T02:34:53.220Z,92.29
2017-09-28T02:35:21.300Z,92.09
2017-09-28T02:35:49.520Z,92.47
2017-09-28T02:36:17.547Z,92.19
2017-09-28T02:36:45.677Z,92.29
2017-09-28T02:37:13.822Z,91.71
2017-09-28T02:37:41.917Z,91.61
2017-09-28T02:38:09.930Z,91.99
2017-09-28T02:38:38.023Z,91.71
2017-09-28T02:39:06.004Z,91.99
2017-09-28T02:39:34.094Z,92.09
2017-09-28T02:40:02.102Z,92.09
2017-09-28T02:40:30.216Z,92.09
2017-09-28T02:40:58.442Z,92.29
2017-09-28T02:41:26.522Z,92.29
2017-09-28T02:41:54.626Z,91.9
2017-09-28T02:42:22.750Z,91.71
2017-09-28T02:42:50.754Z,92.19
2017-09-28T02:43:18.857Z,91.8
2017-09-28T02:43:46.876Z,92.72
2017-09-28T02:44:14.853Z,92.67
2017-09-28T02:44:42.925Z,92.57
2017-09-28T02:45:11.013Z,92.67
2017-09-28T02:45:39.089Z,92.47
2017-09-28T02:46:07.302Z,92.47
2017-09-28T02:46:35.412Z,92.38
2017-09-28T02:47:03.503Z,92.57
2017-09-28T02:47:31.580Z,92.43
2017-09-28T02:47:59.598Z,92.38
2017-09-28T02:48:27.703Z,92.47
2017-09-28T02:48:55.711Z,92.67
2017-09-28T02:49:23.819Z,92.47
2017-09-28T02:49:51.921Z,92.33
2017-09-28T02:50:19.942Z,92.52
2017-09-28T02:50:48.017Z,92.67
2017-09-28T02:51:16.008Z,92.29
2017-09-28T02:51:43.974Z,92.62
2017-09-28T02:52:11.773Z,92.62
2017-09-28T02:52:39.865Z,92.52
2017-09-28T02:53:07.968Z,93.15
2017-09-28T02:53:35.952Z,93.19
2017-09-28T02:54:04.061Z,93.1
2017-09-28T02:54:32.136Z,93.01
2017-09-28T02:55:00.152Z,93.39
2017-09-28T02:55:28.256Z,93.39
2017-09-28T02:55:56.434Z,93.77
2017-09-28T02:56:24.415Z,93.39
2017-09-28T02:56:52.491Z,93.39
2017-09-28T02:57:20.577Z,93.58
2017-09-28T02:57:48.706Z,93.29
2017-09-28T02:58:16.706Z,93.49
2017-09-28T02:58:44.810Z,93.29
2017-09-28T02:59:12.924Z,93.29
2017-09-28T02:59:41.016Z,93.29
2017-09-28T03:00:09.007Z,93.49
2017-09-28T03:00:36.977Z,93.29
2017-09-28T03:01:05.208Z,93.58
2017-09-28T03:01:33.182Z,93.58
2017-09-28T03:02:01.254Z,93.58
2017-09-28T03:02:29.163Z,93.77
2017-09-28T03:02:57.177Z,93.77
2017-09-28T03:03:25.072Z,94.26
2017-09-28T03:03:53.060Z,94.06
2017-09-28T03:04:21.060Z,94.06
2017-09-28T03:04:49.151Z,93.96
2017-09-28T03:05:17.290Z,94.45
2017-09-28T03:05:45.091Z,94.73
2017-09-28T03:06:13.179Z,95.03
2017-09-28T03:06:41.187Z,95.03
2017-09-28T03:07:09.271Z,95.03
2017-09-28T03:07:37.375Z,94.83
2017-09-28T03:08:05.471Z,95.03
2017-09-28T03:08:33.568Z,94.73
2017-09-28T03:09:01.654Z,94.83
2017-09-28T03:09:29.676Z,94.93
2017-09-28T03:09:57.771Z,94.93
2017-09-28T03:10:25.911Z,95.4
2017-09-28T03:10:54.052Z,95.21
2017-09-28T03:11:22.146Z,95.4
2017-09-28T03:11:50.171Z,95.03
2017-09-28T03:12:18.148Z,95.4
2017-09-28T03:12:46.218Z,95.7
2017-09-28T03:13:14.306Z,95.7
2017-09-28T03:13:42.309Z,95.89
2017-09-28T03:14:10.377Z,96.08
2017-09-28T03:14:38.359Z,96.17
2017-09-28T03:15:06.438Z,95.98
2017-09-28T03:15:34.340Z,96.17
2017-09-28T03:16:02.452Z,96.27
2017-09-28T03:16:30.331Z,96.17
2017-09-28T03:16:58.420Z,95.89
2017-09-28T03:17:26.451Z,95.98
2017-09-28T03:17:54.435Z,96.37
2017-09-28T03:18:22.530Z,96.27
2017-09-28T03:18:50.621Z,95.98
2017-09-28T03:19:18.710Z,96.08
2017-09-28T03:19:46.833Z,96.17
2017-09-28T03:20:14.830Z,96.17
2017-09-28T03:20:42.964Z,95.98
2017-09-28T03:21:11.163Z,95.94
2017-09-28T03:21:39.282Z,96.03
2017-09-28T03:22:07.352Z,96.13
2017-09-28T03:22:35.349Z,95.84
2017-09-28T03:23:03.448Z,96.13
2017-09-28T03:23:31.458Z,96.51
2017-09-28T03:23:59.554Z,95.45
2017-09-28T03:24:27.645Z,95.45
2017-09-28T03:24:55.638Z,96.22
2017-09-28T03:25:23.711Z,95.75
2017-09-28T03:25:51.742Z,96.03
2017-09-28T03:26:19.932Z,96.32
2017-09-28T03:26:47.920Z,96.32
2017-09-28T03:27:15.920Z,95.84
2017-09-28T03:27:44.009Z,96.22
2017-09-28T03:28:12.116Z,96.03
2017-09-28T03:28:40.220Z,96.03
2017-09-28T03:29:08.233Z,96.22
2017-09-28T03:29:36.492Z,96.03
2017-09-28T03:30:04.490Z,96.13
2017-09-28T03:30:32.387Z,95.84
2017-09-28T03:31:00.477Z,95.94
2017-09-28T03:31:28.714Z,95.94
2017-09-28T03:31:56.705Z,96.22
2017-09-28T03:32:24.794Z,95.65
2017-09-28T03:32:52.919Z,96.32
2017-09-28T03:33:20.897Z,96.22
2017-09-28T03:33:48.975Z,96.22
2017-09-28T03:34:16.889Z,96.32
2017-09-28T03:34:44.995Z,96.32
2017-09-28T03:35:13.088Z,96.22
2017-09-28T03:35:41.212Z,95.84
2017-09-28T03:36:09.290Z,96.22
2017-09-28T03:36:37.420Z,96.22
2017-09-28T03:37:05.397Z,96.22
2017-09-28T03:37:33.520Z,96.13
2017-09-28T03:38:01.542Z,96.13
2017-09-28T03:38:29.665Z,96.13
2017-09-28T03:38:57.678Z,96.22
2017-09-28T03:39:25.574Z,95.94
2017-09-28T03:39:53.558Z,96.22
2017-09-28T03:40:21.645Z,96.22
2017-09-28T03:40:49.747Z,96.13
2017-09-28T03:41:17.955Z,95.7
2017-09-28T03:41:46.070Z,96.51
2017-09-28T03:42:14.206Z,96.47
2017-09-28T03:42:42.281Z,95.75
2017-09-28T03:43:10.295Z,96.32
2017-09-28T03:43:38.304Z,96.8
2017-09-28T03:44:06.324Z,96.56
2017-09-28T03:44:34.221Z,96.42
2017-09-28T03:45:02.226Z,96.99
2017-09-28T03:45:30.330Z,96.51
2017-09-28T03:45:58.334Z,96.32
2017-09-28T03:46:26.555Z,96.32
2017-09-28T03:46:54.492Z,96.61
2017-09-28T03:47:22.619Z,96.99
2017-09-28T03:47:50.542Z,96.8
2017-09-28T03:48:18.653Z,96.99
2017-09-28T03:48:46.638Z,96.99
2017-09-28T03:49:14.728Z,96.32
2017-09-28T03:49:42.706Z,96.89
2017-09-28T03:50:10.514Z,96.89
2017-09-28T03:50:38.533Z,96.99
2017-09-28T03:51:06.609Z,96.89
2017-09-28T03:51:34.807Z,96.42
2017-09-28T03:52:02.912Z,96.61
2017-09-28T03:52:31.016Z,96.7
2017-09-28T03:52:59.030Z,96.51
2017-09-28T03:53:27.133Z,96.61
2017-09-28T03:53:55.022Z,96.61
2017-09-28T03:54:23.141Z,96.8
2017-09-28T03:54:51.247Z,96.99
2017-09-28T03:55:19.213Z,97.19
2017-09-28T03:55:47.229Z,96.99
2017-09-28T03:56:15.307Z,97.47
2017-09-28T03:56:43.513Z,97.57
2017-09-28T03:57:11.758Z,97.57
2017-09-28T03:57:39.871Z,97.66
2017-09-28T03:58:07.851Z,97.66
2017-09-28T03:58:35.842Z,98.05
2017-09-28T03:59:03.938Z,98.24
2017-09-28T03:59:31.929Z,98.14
2017-09-28T03:59:59.932Z,98.14
2017-09-28T04:00:27.930Z,97.96
2017-09-28T04:00:56.007Z,98.05
2017-09-28T04:01:24.106Z,98.05
2017-09-28T04:01:52.141Z,98.43
2017-09-28T04:02:20.223Z,98.24
2017-09-28T04:02:48.216Z,98.34
2017-09-28T04:03:16.219Z,98.43
2017-09-28T04:03:44.334Z,98.24
2017-09-28T04:04:12.439Z,98.14
2017-09-28T04:04:40.519Z,98.82
2017-09-28T04:05:08.600Z,98.72
2017-09-28T04:05:36.716Z,98.63
2017-09-28T04:06:04.690Z,98.91
2017-09-28T04:06:32.882Z,98.63
2017-09-28T04:07:00.886Z,99.01
2017-09-28T04:07:28.991Z,98.82
2017-09-28T04:07:56.909Z,98.82
2017-09-28T04:08:24.980Z,98.91
2017-09-28T04:08:52.976Z,99.01
2017-09-28T04:09:21.110Z,99.2
2017-09-28T04:09:49.104Z,99.49
2017-09-28T04:10:17.108Z,99.49
2017-09-28T04:10:45.203Z,99.2
2017-09-28T04:11:13.183Z,99.01
2017-09-28T04:11:41.300Z,99.2
2017-09-28T04:12:09.407Z,99.4
2017-09-28T04:12:37.489Z,99.4
2017-09-28T04:13:05.490Z,99.68
2017-09-28T04:13:33.587Z,99.3
2017-09-28T04:14:01.598Z,99.68
2017-09-28T04:14:29.578Z,99.68
2017-09-28T04:14:57.675Z,99.68
2017-09-28T04:15:25.757Z,99.68
2017-09-28T04:15:53.766Z,99.58
2017-09-28T04:16:21.754Z,99.4
2017-09-28T04:16:49.991Z,99.68
2017-09-28T04:17:44.199Z,99.97
2017-09-28T04:18:12.304Z,99.49
2017-09-28T04:18:40.400Z,99.4
2017-09-28T04:19:08.395Z,99.49
2017-09-28T04:19:36.459Z,99.58
2017-09-28T04:20:04.453Z,99.2
2017-09-28T04:20:32.357Z,99.87
2017-09-28T04:21:00.345Z,99.99
2017-09-28T04:21:28.462Z,99.99
2017-09-28T04:21:56.629Z,99.99
2017-09-28T04:22:24.706Z,99.99
2017-09-28T04:22:52.710Z,99.87
2017-09-28T04:23:20.683Z,99.87
2017-09-28T04:23:48.789Z,99.78
2017-09-28T04:24:16.871Z,99.78
2017-09-28T04:24:44.989Z,99.87
2017-09-28T04:25:12.982Z,99.87
2017-09-28T04:25:41.067Z,99.97
2017-09-28T04:26:09.054Z,99.78
2017-09-28T04:26:37.130Z,99.99
2017-09-28T04:27:05.333Z,99.99
2017-09-28T04:27:33.426Z,99.99
2017-09-28T04:28:01.532Z,99.99
2017-09-28T04:28:29.606Z,99.99
2017-09-28T04:28:57.515Z,99.99
2017-09-28T04:29:25.572Z,99.99
2017-09-28T04:29:53.680Z,99.87
2017-09-28T04:30:21.576Z,99.97
2017-09-28T04:30:49.602Z,99.97
2017-09-28T04:31:17.719Z,99.99
2017-09-28T04:31:45.798Z,99.99
2017-09-28T04:32:13.921Z,99.99
2017-09-28T04:32:41.826Z,99.87
2017-09-28T04:33:09.932Z,99.68
2017-09-28T04:33:37.836Z,99.99
2017-09-28T04:34:05.747Z,99.99
2017-09-28T04:34:33.834Z,99.54
2017-09-28T04:35:02.201Z,99.63
2017-09-28T04:35:30.190Z,99.44
2017-09-28T04:35:58.191Z,99.49
2017-09-28T04:36:26.293Z,99.63
2017-09-28T04:36:54.391Z,99.25
2017-09-28T04:37:22.393Z,99.25
2017-09-28T04:37:50.493Z,99.54
2017-09-28T04:38:18.594Z,99.35
2017-09-28T04:38:46.704Z,99.63
2017-09-28T04:39:14.815Z,99.15
2017-09-28T04:39:42.825Z,99.3
2017-09-28T04:40:10.722Z,98.86
2017-09-28T04:40:38.785Z,98.86
2017-09-28T04:41:06.696Z,99.06
2017-09-28T04:41:34.697Z,98.86
2017-09-28T04:42:02.906Z,99.01
2017-09-28T04:42:30.998Z,98.82
2017-09-28T04:42:59.013Z,99.4
2017-09-28T04:43:27.137Z,99.3
2017-09-28T04:43:55.241Z,99.06
2017-09-28T04:44:23.349Z,98.96
2017-09-28T04:44:51.458Z,99.25
2017-09-28T04:45:19.441Z,99.44
2017-09-28T04:45:47.435Z,99.35
2017-09-28T04:46:15.501Z,99.44
2017-09-28T04:46:43.581Z,99.15
2017-09-28T04:47:11.602Z,99.4
2017-09-28T04:47:39.633Z,99.4
2017-09-28T04:48:07.691Z,99.4
2017-09-28T04:48:35.593Z,99.44
2017-09-28T04:49:03.679Z,99.54
2017-09-28T04:49:31.587Z,99.63
2017-09-28T04:49:59.701Z,99.63
2017-09-28T04:50:27.684Z,99.63
2017-09-28T04:50:55.787Z,99.73
2017-09-28T04:51:23.579Z,99.63
2017-09-28T04:51:51.656Z,99.54
2017-09-28T04:52:19.872Z,99.44
2017-09-28T04:52:47.789Z,99.63
2017-09-28T04:53:15.862Z,99.44
2017-09-28T04:53:43.862Z,99.68
2017-09-28T04:54:11.997Z,99.68
2017-09-28T04:54:40.001Z,99.49
2017-09-28T04:55:08.102Z,99.54
2017-09-28T04:55:36.189Z,99.49
2017-09-28T04:56:04.282Z,99.49
2017-09-28T04:56:32.389Z,99.49
2017-09-28T04:57:00.301Z,99.58
2017-09-28T04:57:28.285Z,99.58
2017-09-28T04:57:56.390Z,99.49
2017-09-28T04:58:24.506Z,99.3
2017-09-28T04:58:52.514Z,99.3
2017-09-28T04:59:20.633Z,99.4
2017-09-28T04:59:48.552Z,99.2
2017-09-28T05:00:16.555Z,99.99
2017-09-28T05:00:44.643Z,99.99
2017-09-28T05:01:12.720Z,99.99
2017-09-28T05:01:40.823Z,99.99
2017-09-28T05:02:09.018Z,99.97
2017-09-28T05:02:37.016Z,99.99
2017-09-28T05:03:05.101Z,99.99
2017-09-28T05:03:33.100Z,99.99
2017-09-28T05:04:01.189Z,99.99
2017-09-28T05:04:29.202Z,99.99
2017-09-28T05:04:57.192Z,99.99
2017-09-28T05:05:25.275Z,99.99
2017-09-28T05:05:53.265Z,99.99
2017-09-28T05:06:21.244Z,99.99
2017-09-28T05:06:49.116Z,99.99
2017-09-28T05:07:17.117Z,99.99
2017-09-28T05:07:45.219Z,99.99
2017-09-28T05:08:13.104Z,99.99
2017-09-28T05:08:41.191Z,99.99
2017-09-28T05:09:09.085Z,99.99
2017-09-28T05:09:36.980Z,99.99
2017-09-28T05:10:04.964Z,99.99
2017-09-28T05:10:32.974Z,99.99
2017-09-28T05:11:01.062Z,99.99
2017-09-28T05:11:29.146Z,99.99
2017-09-28T05:11:57.139Z,99.99
2017-09-28T05:12:25.229Z,99.99
2017-09-28T05:12:53.230Z,99.99
2017-09-28T05:13:21.210Z,99.99
2017-09-28T05:13:49.213Z,99.99
2017-09-28T05:14:17.284Z,99.99
2017-09-28T05:14:45.384Z,99.99
2017-09-28T05:15:13.516Z,99.99
2017-09-28T05:15:41.612Z,99.99
2017-09-28T05:16:09.700Z,99.99
2017-09-28T05:16:37.676Z,99.99
2017-09-28T05:17:05.763Z,99.99
2017-09-28T05:17:33.963Z,99.99
2017-09-28T05:18:50.652Z,99.99
2017-09-28T05:19:18.487Z,99.99
2017-09-28T05:19:46.582Z,99.99
2017-09-28T05:20:14.707Z,99.99
2017-09-28T05:20:42.818Z,99.99
2017-09-28T05:21:10.931Z,99.99
2017-09-28T05:21:39.012Z,99.99
2017-09-28T05:22:07.008Z,99.99
2017-09-28T05:22:35.053Z,99.99
2017-09-28T05:23:03.142Z,99.99
2017-09-28T05:23:31.266Z,99.99
2017-09-28T05:23:59.366Z,99.99
2017-09-28T05:24:27.458Z,99.99
2017-09-28T05:24:55.478Z,99.99
2017-09-28T05:25:23.595Z,99.99
2017-09-28T05:25:51.586Z,99.99
2017-09-28T05:26:19.729Z,99.99
2017-09-28T05:26:47.727Z,99.99
2017-09-28T05:27:15.813Z,99.99
2017-09-28T05:27:44.009Z,99.99
2017-09-28T05:28:12.011Z,99.99
2017-09-28T05:28:40.118Z,99.99
2017-09-28T05:29:08.129Z,99.99
2017-09-28T05:29:36.150Z,99.99
2017-09-28T05:30:04.272Z,99.99
2017-09-28T05:30:32.249Z,99.99
2017-09-28T05:31:00.366Z,99.99
2017-09-28T05:31:28.353Z,99.99
2017-09-28T05:31:56.444Z,99.99
2017-09-28T05:32:24.645Z,99.99
2017-09-28T05:32:52.651Z,99.99
2017-09-28T05:33:20.651Z,99.99
2017-09-28T05:33:48.656Z,99.99
2017-09-28T05:34:16.685Z,99.99
2017-09-28T05:34:44.819Z,99.99
2017-09-28T05:35:12.758Z,99.99
2017-09-28T05:35:40.761Z,99.99
2017-09-28T05:36:08.756Z,99.99
2017-09-28T05:36:36.672Z,99.99
2017-09-28T05:37:04.585Z,99.99
2017-09-28T05:37:32.643Z,99.99
2017-09-28T05:38:00.745Z,99.99
2017-09-28T05:38:28.739Z,99.99
2017-09-28T05:38:56.741Z,99.99
2017-09-28T05:39:24.718Z,99.99
2017-09-28T05:39:52.817Z,99.99
2017-09-28T05:40:20.748Z,99.99
2017-09-28T05:40:48.841Z,99.99
2017-09-28T05:41:16.838Z,99.99
2017-09-28T05:41:44.805Z,99.99
2017-09-28T05:42:12.844Z,99.99
2017-09-28T05:42:41.093Z,99.99
2017-09-28T05:43:09.266Z,99.99
2017-09-28T05:43:37.173Z,99.99
2017-09-28T05:44:05.212Z,99.99
2017-09-28T05:44:33.206Z,99.99
2017-09-28T05:45:01.196Z,99.99
2017-09-28T05:45:29.288Z,99.99
2017-09-28T05:45:57.277Z,99.99
2017-09-28T05:46:25.403Z,99.99
2017-09-28T05:46:53.367Z,99.99
2017-09-28T05:47:21.463Z,99.99
2017-09-28T05:47:49.561Z,99.99
2017-09-28T05:48:17.650Z,99.99
2017-09-28T05:48:45.633Z,99.99
2017-09-28T05:49:13.725Z,99.99
2017-09-28T05:49:41.586Z,99.99
2017-09-28T05:50:09.594Z,99.99
2017-09-28T05:50:37.687Z,99.99
2017-09-28T05:51:05.802Z,99.99
2017-09-28T05:51:33.793Z,99.99
2017-09-28T05:52:01.880Z,99.99
2017-09-28T05:52:29.974Z,99.99
2017-09-28T05:52:58.136Z,99.99
2017-09-28T05:53:26.277Z,99.99
2017-09-28T05:53:54.366Z,99.99
2017-09-28T05:54:22.254Z,99.99
2017-09-28T05:54:50.359Z,99.99
2017-09-28T05:55:18.461Z,99.99
2017-09-28T05:55:46.342Z,99.99
2017-09-28T05:56:14.329Z,99.99
2017-09-28T05:56:42.234Z,99.99
2017-09-28T05:57:10.281Z,99.99
2017-09-28T05:57:38.390Z,99.99
2017-09-28T05:58:06.479Z,99.99
2017-09-28T05:58:34.468Z,99.99
2017-09-28T05:59:02.446Z,99.99
2017-09-28T05:59:30.532Z,99.99
2017-09-28T05:59:58.603Z,99.99
2017-09-28T06:00:26.604Z,99.99
2017-09-28T06:00:54.618Z,99.99
2017-09-28T06:01:22.702Z,99.99
2017-09-28T06:01:50.679Z,99.99
2017-09-28T06:02:18.748Z,99.99
2017-09-28T06:02:46.717Z,99.99
2017-09-28T06:03:14.836Z,99.99